Terminal Aerodrome Forecast
Issued by NWS Flagstaff, AZ

Home | Current Version | Previous Version | Text Only | Print | Product List | Glossary On
Versions: 1 2 3 4 5 6 7 8 9 10 11 12 13 14 15 16
000
FTUS45 KFGZ 251100
TAFINW
TAF
KINW 251120Z 2512/2612 VRB06KT P6SM FEW140
     FM252000 26010G16KT P6SM BKN120
     FM260200 VRB06KT P6SM FEW120 SCT200=

USA.gov is the U.S. government's official web portal to all federal, state and local government web resources and services.